sensor_id;sensor_type;location;lat;lon;timestamp;P1;durP1;ratioP1;P2;durP2;ratioP2
1879;SDS011;49285;49.002;8.390;2024-01-10T00:01:17;16.30;;;9.90;;
1879;SDS011;49285;49.002;8.390;2024-01-10T00:03:42;15.40;;;8.90;;
1879;SDS011;49285;49.002;8.390;2024-01-10T00:06:09;18.43;;;10.67;;
1879;SDS011;49285;49.002;8.390;2024-01-10T00:08:35;16.47;;;9.90;;
1879;SDS011;49285;49.002;8.390;2024-01-10T00:11:01;19.50;;;10.20;;
1879;SDS011;49285;49.002;8.390;2024-01-10T00:13:28;17.97;;;10.33;;
1879;SDS011;49285;49.002;8.390;2024-01-10T00:15:54;14.70;;;8.97;;
1879;SDS011;49285;49.002;8.390;2024-01-10T00:18:20;16.53;;;10.40;;
1879;SDS011;49285;49.002;8.390;2024-01-10T00:20:46;18.93;;;10.67;;
1879;SDS011;49285;49.002;8.390;2024-01-10T00:23:12;12.47;;;8.33;;
1879;SDS011;49285;49.002;8.390;2024-01-10T00:25:38;18.70;;;9.40;;
1879;SDS011;49285;49.002;8.390;2024-01-10T00:28:04;18.10;;;9.70;;
1879;SDS011;49285;49.002;8.390;2024-01-10T00:30:30;14.90;;;9.70;;
1879;SDS011;49285;49.002;8.390;2024-01-10T00:32:55;18.30;;;10.00;;
1879;SDS011;49285;49.002;8.390;2024-01-10T00:35:21;19.57;;;10.47;;
1879;SDS011;49285;49.002;8.390;2024-01-10T00:37:47;19.73;;;10.50;;
1879;SDS011;49285;49.002;8.390;2024-01-10T00:40:12;18.43;;;9.83;;
1879;SDS011;49285;49.002;8.390;2024-01-10T00:42:38;22.70;;;10.43;;
1879;SDS011;49285;49.002;8.390;2024-01-10T00:45:03;15.90;;;10.10;;
1879;SDS011;49285;49.002;8.390;2024-01-10T00:47:30;15.00;;;9.33;;
1879;SDS011;49285;49.002;8.390;2024-01-10T00:49:55;19.90;;;10.80;;
1879;SDS011;49285;49.002;8.390;2024-01-10T00:52:21;18.57;;;10.10;;
1879;SDS011;49285;49.002;8.390;2024-01-10T00:54:47;16.80;;;9.60;;
1879;SDS011;49285;49.002;8.390;2024-01-10T00:57:12;17.83;;;10.93;;
1879;SDS011;49285;49.002;8.390;2024-01-10T00:59:38;16.37;;;11.03;;
1879;SDS011;49285;49.002;8.390;2024-01-10T01:02:03;16.00;;;9.77;;
1879;SDS011;49285;49.002;8.390;2024-01-10T01:04:29;18.30;;;8.93;;
1879;SDS011;49285;49.002;8.390;2024-01-10T01:06:55;22.50;;;10.83;;
1879;SDS011;49285;49.002;8.390;2024-01-10T01:09:20;15.90;;;9.40;;
1879;SDS011;49285;49.002;8.390;2024-01-10T01:11:46;15.80;;;9.53;;
1879;SDS011;49285;49.002;8.390;2024-01-10T01:14:11;16.30;;;9.53;;
1879;SDS011;49285;49.002;8.390;2024-01-10T01:16:37;15.17;;;9.60;;
1879;SDS011;49285;49.002;8.390;2024-01-10T01:19:02;17.63;;;10.60;;
1879;SDS011;49285;49.002;8.390;2024-01-10T01:21:28;18.80;;;10.07;;
1879;SDS011;49285;49.002;8.390;2024-01-10T01:23:54;15.93;;;10.03;;
1879;SDS011;49285;49.002;8.390;2024-01-10T01:26:19;16.70;;;9.90;;
1879;SDS011;49285;49.002;8.390;2024-01-10T01:28:45;18.10;;;9.80;;
1879;SDS011;49285;49.002;8.390;2024-01-10T01:31:10;18.67;;;10.20;;
1879;SDS011;49285;49.002;8.390;2024-01-10T01:33:36;17.63;;;11.50;;
1879;SDS011;49285;49.002;8.390;2024-01-10T01:36:04;13.83;;;10.10;;
1879;SDS011;49285;49.002;8.390;2024-01-10T01:38:30;19.60;;;10.40;;
1879;SDS011;49285;49.002;8.390;2024-01-10T01:40:56;19.60;;;9.80;;
1879;SDS011;49285;49.002;8.390;2024-01-10T01:43:25;19.23;;;10.43;;
1879;SDS011;49285;49.002;8.390;2024-01-10T01:45:54;20.13;;;9.90;;
1879;SDS011;49285;49.002;8.390;2024-01-10T01:48:22;15.50;;;10.80;;
1879;SDS011;49285;49.002;8.390;2024-01-10T01:50:49;21.30;;;10.90;;
1879;SDS011;49285;49.002;8.390;2024-01-10T01:53:19;18.10;;;10.27;;
1879;SDS011;49285;49.002;8.390;2024-01-10T01:55:45;18.30;;;10.60;;
1879;SDS011;49285;49.002;8.390;2024-01-10T01:58:11;22.40;;;12.17;;
1879;SDS011;49285;49.002;8.390;2024-01-10T02:00:37;20.93;;;11.13;;
1879;SDS011;49285;49.002;8.390;2024-01-10T02:03:04;21.90;;;11.13;;
1879;SDS011;49285;49.002;8.390;2024-01-10T02:05:31;19.07;;;11.20;;
1879;SDS011;49285;49.002;8.390;2024-01-10T02:07:57;19.30;;;10.73;;
1879;SDS011;49285;49.002;8.390;2024-01-10T02:10:23;21.73;;;11.07;;
1879;SDS011;49285;49.002;8.390;2024-01-10T02:12:48;20.00;;;11.17;;
1879;SDS011;49285;49.002;8.390;2024-01-10T02:15:14;14.97;;;10.17;;
1879;SDS011;49285;49.002;8.390;2024-01-10T02:17:40;18.87;;;10.30;;
1879;SDS011;49285;49.002;8.390;2024-01-10T02:22:34;19.63;;;11.37;;
1879;SDS011;49285;49.002;8.390;2024-01-10T02:24:59;19.27;;;11.57;;
1879;SDS011;49285;49.002;8.390;2024-01-10T02:27:25;17.53;;;10.90;;
1879;SDS011;49285;49.002;8.390;2024-01-10T02:29:51;19.87;;;11.70;;
1879;SDS011;49285;49.002;8.390;2024-01-10T02:32:18;14.83;;;10.97;;
1879;SDS011;49285;49.002;8.390;2024-01-10T02:34:43;18.83;;;10.43;;
1879;SDS011;49285;49.002;8.390;2024-01-10T02:37:09;15.43;;;8.77;;
1879;SDS011;49285;49.002;8.390;2024-01-10T02:39:34;20.30;;;11.10;;
1879;SDS011;49285;49.002;8.390;2024-01-10T02:42:00;16.20;;;11.03;;
1879;SDS011;49285;49.002;8.390;2024-01-10T02:44:26;16.73;;;10.50;;
1879;SDS011;49285;49.002;8.390;2024-01-10T02:46:53;15.80;;;9.80;;
1879;SDS011;49285;49.002;8.390;2024-01-10T02:49:18;17.70;;;11.50;;
1879;SDS011;49285;49.002;8.390;2024-01-10T02:51:44;23.30;;;10.93;;
1879;SDS011;49285;49.002;8.390;2024-01-10T02:54:10;21.57;;;10.13;;
1879;SDS011;49285;49.002;8.390;2024-01-10T02:56:36;19.17;;;11.53;;
1879;SDS011;49285;49.002;8.390;2024-01-10T02:59:01;23.97;;;11.97;;
1879;SDS011;49285;49.002;8.390;2024-01-10T03:01:27;16.10;;;10.83;;
1879;SDS011;49285;49.002;8.390;2024-01-10T03:03:53;18.03;;;11.80;;
1879;SDS011;49285;49.002;8.390;2024-01-10T03:06:18;20.07;;;10.30;;
1879;SDS011;49285;49.002;8.390;2024-01-10T03:08:44;22.67;;;12.27;;
1879;SDS011;49285;49.002;8.390;2024-01-10T03:11:11;16.17;;;10.70;;
1879;SDS011;49285;49.002;8.390;2024-01-10T03:13:36;22.10;;;12.43;;
1879;SDS011;49285;49.002;8.390;2024-01-10T03:16:04;18.10;;;11.00;;
1879;SDS011;49285;49.002;8.390;2024-01-10T03:18:29;20.23;;;11.53;;
1879;SDS011;49285;49.002;8.390;2024-01-10T03:20:55;18.83;;;12.70;;
1879;SDS011;49285;49.002;8.390;2024-01-10T03:23:21;16.50;;;11.30;;
1879;SDS011;49285;49.002;8.390;2024-01-10T03:25:47;20.17;;;10.50;;
1879;SDS011;49285;49.002;8.390;2024-01-10T03:28:16;17.20;;;12.27;;
1879;SDS011;49285;49.002;8.390;2024-01-10T03:30:42;20.63;;;11.67;;
1879;SDS011;49285;49.002;8.390;2024-01-10T03:33:08;19.73;;;11.00;;
1879;SDS011;49285;49.002;8.390;2024-01-10T03:35:34;22.10;;;11.97;;
1879;SDS011;49285;49.002;8.390;2024-01-10T03:37:59;17.40;;;11.43;;
1879;SDS011;49285;49.002;8.390;2024-01-10T03:40:25;27.00;;;12.20;;
1879;SDS011;49285;49.002;8.390;2024-01-10T03:42:51;18.87;;;11.53;;
1879;SDS011;49285;49.002;8.390;2024-01-10T03:45:17;21.03;;;11.93;;
1879;SDS011;49285;49.002;8.390;2024-01-10T03:47:45;21.57;;;10.67;;
1879;SDS011;49285;49.002;8.390;2024-01-10T03:50:15;18.60;;;11.20;;
1879;SDS011;49285;49.002;8.390;2024-01-10T03:52:41;20.07;;;11.13;;
1879;SDS011;49285;49.002;8.390;2024-01-10T03:55:07;23.20;;;11.87;;
1879;SDS011;49285;49.002;8.390;2024-01-10T03:57:34;20.87;;;11.30;;
1879;SDS011;49285;49.002;8.390;2024-01-10T03:59:59;19.67;;;11.23;;
1879;SDS011;49285;49.002;8.390;2024-01-10T04:02:25;18.13;;;11.00;;
1879;SDS011;49285;49.002;8.390;2024-01-10T04:04:52;22.50;;;11.87;;
1879;SDS011;49285;49.002;8.390;2024-01-10T04:07:18;21.40;;;11.90;;
1879;SDS011;49285;49.002;8.390;2024-01-10T04:09:44;17.43;;;11.67;;
1879;SDS011;49285;49.002;8.390;2024-01-10T04:12:10;22.10;;;11.70;;
1879;SDS011;49285;49.002;8.390;2024-01-10T04:14:35;23.37;;;13.30;;
1879;SDS011;49285;49.002;8.390;2024-01-10T04:17:01;18.20;;;11.87;;
1879;SDS011;49285;49.002;8.390;2024-01-10T04:19:29;19.60;;;11.57;;
1879;SDS011;49285;49.002;8.390;2024-01-10T04:21:55;24.33;;;12.03;;
1879;SDS011;49285;49.002;8.390;2024-01-10T04:24:21;19.20;;;12.47;;
1879;SDS011;49285;49.002;8.390;2024-01-10T04:26:46;20.40;;;12.00;;
1879;SDS011;49285;49.002;8.390;2024-01-10T04:29:12;18.20;;;12.27;;
1879;SDS011;49285;49.002;8.390;2024-01-10T04:31:37;20.80;;;12.03;;
1879;SDS011;49285;49.002;8.390;2024-01-10T04:34:03;20.97;;;12.43;;
1879;SDS011;49285;49.002;8.390;2024-01-10T04:36:29;24.37;;;12.47;;
1879;SDS011;49285;49.002;8.390;2024-01-10T04:38:54;22.37;;;11.70;;
1879;SDS011;49285;49.002;8.390;2024-01-10T04:41:20;22.67;;;11.50;;
1879;SDS011;49285;49.002;8.390;2024-01-10T04:43:46;20.40;;;12.13;;
1879;SDS011;49285;49.002;8.390;2024-01-10T04:46:11;23.80;;;12.40;;
1879;SDS011;49285;49.002;8.390;2024-01-10T04:48:37;22.00;;;12.20;;
1879;SDS011;49285;49.002;8.390;2024-01-10T04:51:02;19.17;;;11.47;;
1879;SDS011;49285;49.002;8.390;2024-01-10T04:53:28;21.97;;;13.23;;
1879;SDS011;49285;49.002;8.390;2024-01-10T04:55:53;19.90;;;11.23;;
1879;SDS011;49285;49.002;8.390;2024-01-10T04:58:19;20.97;;;11.70;;
1879;SDS011;49285;49.002;8.390;2024-01-10T05:00:45;17.40;;;10.77;;
1879;SDS011;49285;49.002;8.390;2024-01-10T05:03:10;23.77;;;11.63;;
1879;SDS011;49285;49.002;8.390;2024-01-10T05:05:36;20.17;;;11.30;;
1879;SDS011;49285;49.002;8.390;2024-01-10T05:08:01;19.00;;;11.17;;
1879;SDS011;49285;49.002;8.390;2024-01-10T05:10:27;19.10;;;11.00;;
1879;SDS011;49285;49.002;8.390;2024-01-10T05:12:53;17.77;;;11.17;;
1879;SDS011;49285;49.002;8.390;2024-01-10T05:15:19;19.33;;;11.20;;
1879;SDS011;49285;49.002;8.390;2024-01-10T05:17:44;18.17;;;11.90;;
1879;SDS011;49285;49.002;8.390;2024-01-10T05:20:10;22.20;;;11.87;;
1879;SDS011;49285;49.002;8.390;2024-01-10T05:22:35;18.90;;;10.90;;
1879;SDS011;49285;49.002;8.390;2024-01-10T05:25:01;23.03;;;12.03;;
1879;SDS011;49285;49.002;8.390;2024-01-10T05:27:28;29.43;;;12.63;;
1879;SDS011;49285;49.002;8.390;2024-01-10T05:29:54;17.47;;;11.27;;
1879;SDS011;49285;49.002;8.390;2024-01-10T05:32:19;21.93;;;12.30;;
1879;SDS011;49285;49.002;8.390;2024-01-10T05:34:45;21.40;;;12.20;;
1879;SDS011;49285;49.002;8.390;2024-01-10T05:37:10;21.00;;;12.07;;
1879;SDS011;49285;49.002;8.390;2024-01-10T05:39:36;22.17;;;11.83;;
1879;SDS011;49285;49.002;8.390;2024-01-10T05:42:02;24.60;;;11.80;;
1879;SDS011;49285;49.002;8.390;2024-01-10T05:44:28;19.43;;;12.37;;
1879;SDS011;49285;49.002;8.390;2024-01-10T05:46:54;24.03;;;13.80;;
1879;SDS011;49285;49.002;8.390;2024-01-10T05:49:19;20.97;;;13.17;;
1879;SDS011;49285;49.002;8.390;2024-01-10T05:51:47;20.90;;;11.70;;
1879;SDS011;49285;49.002;8.390;2024-01-10T05:54:12;22.30;;;12.17;;
1879;SDS011;49285;49.002;8.390;2024-01-10T05:56:38;23.93;;;14.00;;
1879;SDS011;49285;49.002;8.390;2024-01-10T05:59:03;19.73;;;11.97;;
1879;SDS011;49285;49.002;8.390;2024-01-10T06:01:29;20.13;;;11.90;;
1879;SDS011;49285;49.002;8.390;2024-01-10T06:03:54;21.53;;;11.83;;
1879;SDS011;49285;49.002;8.390;2024-01-10T06:06:21;19.80;;;12.83;;
1879;SDS011;49285;49.002;8.390;2024-01-10T06:08:47;25.77;;;12.87;;
1879;SDS011;49285;49.002;8.390;2024-01-10T06:11:12;19.97;;;11.77;;
1879;SDS011;49285;49.002;8.390;2024-01-10T06:13:38;19.13;;;12.87;;
1879;SDS011;49285;49.002;8.390;2024-01-10T06:16:03;21.73;;;11.47;;
1879;SDS011;49285;49.002;8.390;2024-01-10T06:18:29;20.63;;;12.83;;
1879;SDS011;49285;49.002;8.390;2024-01-10T06:20:55;23.93;;;12.27;;
1879;SDS011;49285;49.002;8.390;2024-01-10T06:23:20;21.90;;;11.93;;
1879;SDS011;49285;49.002;8.390;2024-01-10T06:25:46;24.13;;;13.10;;
1879;SDS011;49285;49.002;8.390;2024-01-10T06:28:12;18.20;;;10.67;;
1879;SDS011;49285;49.002;8.390;2024-01-10T06:30:37;19.23;;;11.30;;
1879;SDS011;49285;49.002;8.390;2024-01-10T06:33:03;22.60;;;13.20;;
1879;SDS011;49285;49.002;8.390;2024-01-10T06:35:31;21.10;;;11.53;;
1879;SDS011;49285;49.002;8.390;2024-01-10T06:37:57;20.83;;;10.60;;
1879;SDS011;49285;49.002;8.390;2024-01-10T06:40:23;20.20;;;12.00;;
1879;SDS011;49285;49.002;8.390;2024-01-10T06:42:48;27.60;;;13.60;;
1879;SDS011;49285;49.002;8.390;2024-01-10T06:45:14;22.07;;;12.47;;
1879;SDS011;49285;49.002;8.390;2024-01-10T06:47:39;21.97;;;11.30;;
1879;SDS011;49285;49.002;8.390;2024-01-10T06:50:05;22.57;;;11.83;;
1879;SDS011;49285;49.002;8.390;2024-01-10T06:52:31;22.77;;;11.77;;
1879;SDS011;49285;49.002;8.390;2024-01-10T06:54:57;26.33;;;12.57;;
1879;SDS011;49285;49.002;8.390;2024-01-10T06:57:22;21.37;;;11.20;;
1879;SDS011;49285;49.002;8.390;2024-01-10T06:59:48;22.00;;;13.13;;
1879;SDS011;49285;49.002;8.390;2024-01-10T07:02:14;22.77;;;12.40;;
1879;SDS011;49285;49.002;8.390;2024-01-10T07:04:40;23.20;;;11.93;;
1879;SDS011;49285;49.002;8.390;2024-01-10T07:07:06;19.80;;;11.97;;
1879;SDS011;49285;49.002;8.390;2024-01-10T07:09:33;19.57;;;12.90;;
1879;SDS011;49285;49.002;8.390;2024-01-10T07:11:59;27.53;;;13.87;;
1879;SDS011;49285;49.002;8.390;2024-01-10T07:14:24;21.27;;;12.13;;
1879;SDS011;49285;49.002;8.390;2024-01-10T07:16:50;21.40;;;12.20;;
1879;SDS011;49285;49.002;8.390;2024-01-10T07:19:17;24.40;;;13.60;;
1879;SDS011;49285;49.002;8.390;2024-01-10T07:21:42;19.40;;;11.90;;
1879;SDS011;49285;49.002;8.390;2024-01-10T07:24:08;19.33;;;12.73;;
1879;SDS011;49285;49.002;8.390;2024-01-10T07:26:35;20.83;;;11.60;;
1879;SDS011;49285;49.002;8.390;2024-01-10T07:29:01;26.87;;;13.27;;
1879;SDS011;49285;49.002;8.390;2024-01-10T07:31:28;21.57;;;13.20;;
1879;SDS011;49285;49.002;8.390;2024-01-10T07:33:54;28.13;;;13.33;;
1879;SDS011;49285;49.002;8.390;2024-01-10T07:36:21;21.00;;;12.03;;
1879;SDS011;49285;49.002;8.390;2024-01-10T07:38:54;27.30;;;13.90;;
1879;SDS011;49285;49.002;8.390;2024-01-10T07:41:23;22.87;;;12.07;;
1879;SDS011;49285;49.002;8.390;2024-01-10T07:43:49;24.13;;;13.00;;
1879;SDS011;49285;49.002;8.390;2024-01-10T07:46:14;25.67;;;14.93;;
1879;SDS011;49285;49.002;8.390;2024-01-10T07:48:40;23.50;;;13.70;;
1879;SDS011;49285;49.002;8.390;2024-01-10T07:51:05;27.73;;;13.07;;
1879;SDS011;49285;49.002;8.390;2024-01-10T07:53:31;22.20;;;12.33;;
1879;SDS011;49285;49.002;8.390;2024-01-10T07:55:58;21.47;;;12.20;;
1879;SDS011;49285;49.002;8.390;2024-01-10T07:58:24;22.03;;;11.93;;
1879;SDS011;49285;49.002;8.390;2024-01-10T08:00:49;23.17;;;12.40;;
1879;SDS011;49285;49.002;8.390;2024-01-10T08:03:16;21.50;;;12.60;;
1879;SDS011;49285;49.002;8.390;2024-01-10T08:05:41;21.80;;;13.13;;
1879;SDS011;49285;49.002;8.390;2024-01-10T08:08:08;25.17;;;12.87;;
1879;SDS011;49285;49.002;8.390;2024-01-10T08:10:34;21.23;;;13.50;;
1879;SDS011;49285;49.002;8.390;2024-01-10T08:12:59;23.23;;;14.10;;
1879;SDS011;49285;49.002;8.390;2024-01-10T08:15:25;25.77;;;14.17;;
1879;SDS011;49285;49.002;8.390;2024-01-10T08:17:51;22.43;;;12.37;;
1879;SDS011;49285;49.002;8.390;2024-01-10T08:20:17;21.20;;;12.90;;
1879;SDS011;49285;49.002;8.390;2024-01-10T08:22:45;28.63;;;14.57;;
1879;SDS011;49285;49.002;8.390;2024-01-10T08:25:12;25.57;;;15.80;;
1879;SDS011;49285;49.002;8.390;2024-01-10T08:27:40;22.03;;;13.20;;
1879;SDS011;49285;49.002;8.390;2024-01-10T08:30:06;23.07;;;12.20;;
1879;SDS011;49285;49.002;8.390;2024-01-10T08:32:34;20.13;;;12.20;;
1879;SDS011;49285;49.002;8.390;2024-01-10T08:35:01;25.83;;;12.77;;
1879;SDS011;49285;49.002;8.390;2024-01-10T08:37:30;20.70;;;12.83;;
1879;SDS011;49285;49.002;8.390;2024-01-10T08:39:55;25.83;;;12.70;;
1879;SDS011;49285;49.002;8.390;2024-01-10T08:42:22;20.40;;;12.30;;
1879;SDS011;49285;49.002;8.390;2024-01-10T08:44:47;26.07;;;13.70;;
1879;SDS011;49285;49.002;8.390;2024-01-10T08:47:14;25.40;;;13.33;;
1879;SDS011;49285;49.002;8.390;2024-01-10T08:49:40;24.57;;;13.30;;
1879;SDS011;49285;49.002;8.390;2024-01-10T08:52:05;25.77;;;13.53;;
1879;SDS011;49285;49.002;8.390;2024-01-10T08:54:31;21.03;;;13.20;;
1879;SDS011;49285;49.002;8.390;2024-01-10T08:56:56;19.23;;;12.47;;
1879;SDS011;49285;49.002;8.390;2024-01-10T08:59:23;26.60;;;14.97;;
1879;SDS011;49285;49.002;8.390;2024-01-10T09:01:49;22.07;;;13.87;;
1879;SDS011;49285;49.002;8.390;2024-01-10T09:04:14;20.30;;;12.53;;
1879;SDS011;49285;49.002;8.390;2024-01-10T09:06:40;24.73;;;13.10;;
1879;SDS011;49285;49.002;8.390;2024-01-10T09:09:06;21.80;;;13.00;;
1879;SDS011;49285;49.002;8.390;2024-01-10T09:11:32;20.97;;;12.80;;
1879;SDS011;49285;49.002;8.390;2024-01-10T09:13:58;27.10;;;14.20;;
1879;SDS011;49285;49.002;8.390;2024-01-10T09:16:24;28.73;;;16.67;;
1879;SDS011;49285;49.002;8.390;2024-01-10T09:18:49;25.00;;;13.80;;
1879;SDS011;49285;49.002;8.390;2024-01-10T09:21:19;25.30;;;14.80;;
1879;SDS011;49285;49.002;8.390;2024-01-10T09:23:45;23.23;;;13.30;;
1879;SDS011;49285;49.002;8.390;2024-01-10T09:26:12;24.07;;;14.00;;
1879;SDS011;49285;49.002;8.390;2024-01-10T09:28:38;23.30;;;14.73;;
1879;SDS011;49285;49.002;8.390;2024-01-10T09:31:05;23.67;;;13.70;;
1879;SDS011;49285;49.002;8.390;2024-01-10T09:33:32;23.00;;;14.70;;
1879;SDS011;49285;49.002;8.390;2024-01-10T09:35:59;23.73;;;13.47;;
1879;SDS011;49285;49.002;8.390;2024-01-10T09:38:24;21.33;;;14.80;;
1879;SDS011;49285;49.002;8.390;2024-01-10T09:40:51;23.67;;;15.30;;
1879;SDS011;49285;49.002;8.390;2024-01-10T09:43:20;27.30;;;14.40;;
1879;SDS011;49285;49.002;8.390;2024-01-10T09:45:46;20.93;;;13.03;;
1879;SDS011;49285;49.002;8.390;2024-01-10T09:48:14;23.10;;;13.03;;
1879;SDS011;49285;49.002;8.390;2024-01-10T09:50:40;26.47;;;15.03;;
1879;SDS011;49285;49.002;8.390;2024-01-10T09:53:06;23.93;;;14.60;;
1879;SDS011;49285;49.002;8.390;2024-01-10T09:55:37;33.10;;;13.63;;
1879;SDS011;49285;49.002;8.390;2024-01-10T09:58:06;23.80;;;13.67;;
1879;SDS011;49285;49.002;8.390;2024-01-10T10:00:36;21.80;;;13.97;;
1879;SDS011;49285;49.002;8.390;2024-01-10T10:03:04;24.93;;;14.57;;
1879;SDS011;49285;49.002;8.390;2024-01-10T10:05:35;28.23;;;15.13;;
1879;SDS011;49285;49.002;8.390;2024-01-10T10:08:02;23.93;;;13.97;;
1879;SDS011;49285;49.002;8.390;2024-01-10T10:10:28;25.00;;;14.97;;
1879;SDS011;49285;49.002;8.390;2024-01-10T10:12:54;25.50;;;14.77;;
1879;SDS011;49285;49.002;8.390;2024-01-10T10:15:20;25.40;;;14.70;;
1879;SDS011;49285;49.002;8.390;2024-01-10T10:17:47;23.60;;;14.90;;
1879;SDS011;49285;49.002;8.390;2024-01-10T10:20:19;28.17;;;16.10;;
1879;SDS011;49285;49.002;8.390;2024-01-10T10:23:05;25.20;;;15.50;;
1879;SDS011;49285;49.002;8.390;2024-01-10T10:25:35;23.23;;;15.30;;
1879;SDS011;49285;49.002;8.390;2024-01-10T10:28:03;25.10;;;15.60;;
1879;SDS011;49285;49.002;8.390;2024-01-10T10:30:32;21.10;;;13.40;;
1879;SDS011;49285;49.002;8.390;2024-01-10T10:32:58;24.07;;;14.27;;
1879;SDS011;49285;49.002;8.390;2024-01-10T10:35:24;25.37;;;14.93;;
1879;SDS011;49285;49.002;8.390;2024-01-10T10:37:50;23.57;;;14.60;;
1879;SDS011;49285;49.002;8.390;2024-01-10T10:40:17;24.93;;;14.77;;
1879;SDS011;49285;49.002;8.390;2024-01-10T10:42:44;26.23;;;15.17;;
1879;SDS011;49285;49.002;8.390;2024-01-10T10:45:14;23.67;;;14.37;;
1879;SDS011;49285;49.002;8.390;2024-01-10T10:47:45;22.43;;;14.67;;
1879;SDS011;49285;49.002;8.390;2024-01-10T10:50:18;32.37;;;16.30;;
1879;SDS011;49285;49.002;8.390;2024-01-10T10:52:50;25.00;;;15.30;;
1879;SDS011;49285;49.002;8.390;2024-01-10T10:55:17;28.50;;;17.20;;
1879;SDS011;49285;49.002;8.390;2024-01-10T10:57:44;23.40;;;15.30;;
1879;SDS011;49285;49.002;8.390;2024-01-10T11:00:12;25.80;;;15.57;;
1879;SDS011;49285;49.002;8.390;2024-01-10T11:02:40;23.63;;;15.83;;
1879;SDS011;49285;49.002;8.390;2024-01-10T11:05:06;22.97;;;15.20;;
1879;SDS011;49285;49.002;8.390;2024-01-10T11:07:37;27.63;;;16.80;;
1879;SDS011;49285;49.002;8.390;2024-01-10T11:10:14;29.40;;;15.50;;
1879;SDS011;49285;49.002;8.390;2024-01-10T11:23:54;29.53;;;15.60;;
1879;SDS011;49285;49.002;8.390;2024-01-10T11:26:23;25.23;;;15.43;;
1879;SDS011;49285;49.002;8.390;2024-01-10T11:28:50;24.03;;;15.90;;
1879;SDS011;49285;49.002;8.390;2024-01-10T11:31:16;25.67;;;17.23;;
1879;SDS011;49285;49.002;8.390;2024-01-10T11:33:53;31.33;;;18.00;;
1879;SDS011;49285;49.002;8.390;2024-01-10T11:36:20;27.67;;;17.90;;
1879;SDS011;49285;49.002;8.390;2024-01-10T11:41:30;33.80;;;17.43;;
1879;SDS011;49285;49.002;8.390;2024-01-10T11:46:45;28.67;;;18.97;;
1879;SDS011;49285;49.002;8.390;2024-01-10T11:49:13;33.20;;;16.90;;
1879;SDS011;49285;49.002;8.390;2024-01-10T11:51:46;29.80;;;17.00;;
1879;SDS011;49285;49.002;8.390;2024-01-10T11:54:34;27.60;;;17.37;;
1879;SDS011;49285;49.002;8.390;2024-01-10T11:57:08;31.70;;;17.87;;
1879;SDS011;49285;49.002;8.390;2024-01-10T11:59:37;29.40;;;17.13;;
1879;SDS011;49285;49.002;8.390;2024-01-10T12:02:08;25.90;;;17.43;;
1879;SDS011;49285;49.002;8.390;2024-01-10T12:04:34;25.47;;;16.63;;
1879;SDS011;49285;49.002;8.390;2024-01-10T12:07:00;30.10;;;18.60;;
1879;SDS011;49285;49.002;8.390;2024-01-10T12:09:31;25.93;;;18.17;;
1879;SDS011;49285;49.002;8.390;2024-01-10T12:11:57;26.97;;;17.97;;
1879;SDS011;49285;49.002;8.390;2024-01-10T12:14:23;26.37;;;17.40;;
1879;SDS011;49285;49.002;8.390;2024-01-10T12:16:50;29.90;;;17.93;;
1879;SDS011;49285;49.002;8.390;2024-01-10T12:19:17;34.20;;;19.23;;
1879;SDS011;49285;49.002;8.390;2024-01-10T12:21:43;24.03;;;17.63;;
1879;SDS011;49285;49.002;8.390;2024-01-10T12:24:09;27.97;;;19.33;;
1879;SDS011;49285;49.002;8.390;2024-01-10T12:26:34;27.50;;;18.80;;
1879;SDS011;49285;49.002;8.390;2024-01-10T12:29:01;27.80;;;19.77;;
1879;SDS011;49285;49.002;8.390;2024-01-10T12:31:29;23.23;;;18.50;;
1879;SDS011;49285;49.002;8.390;2024-01-10T12:33:55;28.30;;;20.03;;
1879;SDS011;49285;49.002;8.390;2024-01-10T12:36:21;27.33;;;20.80;;
1879;SDS011;49285;49.002;8.390;2024-01-10T12:38:47;26.07;;;18.83;;
1879;SDS011;49285;49.002;8.390;2024-01-10T12:41:14;25.70;;;19.27;;
1879;SDS011;49285;49.002;8.390;2024-01-10T12:43:41;26.83;;;19.90;;
1879;SDS011;49285;49.002;8.390;2024-01-10T12:46:10;25.43;;;20.57;;
1879;SDS011;49285;49.002;8.390;2024-01-10T12:48:37;25.60;;;18.77;;
1879;SDS011;49285;49.002;8.390;2024-01-10T12:51:06;25.23;;;19.73;;
1879;SDS011;49285;49.002;8.390;2024-01-10T12:53:36;30.13;;;20.67;;
1879;SDS011;49285;49.002;8.390;2024-01-10T12:56:04;26.60;;;20.90;;
1879;SDS011;49285;49.002;8.390;2024-01-10T12:58:31;29.20;;;20.73;;
1879;SDS011;49285;49.002;8.390;2024-01-10T13:00:57;29.40;;;21.37;;
1879;SDS011;49285;49.002;8.390;2024-01-10T13:03:23;26.20;;;20.93;;
1879;SDS011;49285;49.002;8.390;2024-01-10T13:05:52;29.80;;;21.60;;
1879;SDS011;49285;49.002;8.390;2024-01-10T13:08:18;32.20;;;20.47;;
1879;SDS011;49285;49.002;8.390;2024-01-10T13:10:47;31.27;;;21.27;;
1879;SDS011;49285;49.002;8.390;2024-01-10T13:13:13;27.27;;;20.63;;
1879;SDS011;49285;49.002;8.390;2024-01-10T13:15:39;25.70;;;19.33;;
1879;SDS011;49285;49.002;8.390;2024-01-10T13:18:05;26.63;;;19.97;;
1879;SDS011;49285;49.002;8.390;2024-01-10T13:20:31;27.50;;;21.20;;
1879;SDS011;49285;49.002;8.390;2024-01-10T13:22:57;25.93;;;20.40;;
1879;SDS011;49285;49.002;8.390;2024-01-10T13:25:23;26.50;;;19.73;;
1879;SDS011;49285;49.002;8.390;2024-01-10T13:27:49;26.10;;;20.93;;
1879;SDS011;49285;49.002;8.390;2024-01-10T13:30:16;30.37;;;22.27;;
1879;SDS011;49285;49.002;8.390;2024-01-10T13:32:42;26.73;;;19.53;;
1879;SDS011;49285;49.002;8.390;2024-01-10T13:35:08;29.93;;;20.47;;
1879;SDS011;49285;49.002;8.390;2024-01-10T13:37:34;27.47;;;22.10;;
1879;SDS011;49285;49.002;8.390;2024-01-10T13:39:59;28.40;;;21.27;;
1879;SDS011;49285;49.002;8.390;2024-01-10T13:42:25;27.03;;;19.60;;
1879;SDS011;49285;49.002;8.390;2024-01-10T13:44:51;36.13;;;21.70;;
1879;SDS011;49285;49.002;8.390;2024-01-10T13:47:19;29.73;;;21.07;;
1879;SDS011;49285;49.002;8.390;2024-01-10T13:49:49;36.57;;;21.90;;
1879;SDS011;49285;49.002;8.390;2024-01-10T13:52:14;27.50;;;19.20;;
1879;SDS011;49285;49.002;8.390;2024-01-10T13:54:40;30.03;;;20.67;;
1879;SDS011;49285;49.002;8.390;2024-01-10T13:57:07;28.80;;;19.20;;
1879;SDS011;49285;49.002;8.390;2024-01-10T13:59:33;29.87;;;18.43;;
1879;SDS011;49285;49.002;8.390;2024-01-10T14:01:58;28.27;;;18.43;;
1879;SDS011;49285;49.002;8.390;2024-01-10T14:04:24;34.23;;;19.43;;
1879;SDS011;49285;49.002;8.390;2024-01-10T14:06:50;31.03;;;17.90;;
1879;SDS011;49285;49.002;8.390;2024-01-10T14:09:15;30.33;;;18.97;;
1879;SDS011;49285;49.002;8.390;2024-01-10T14:11:42;27.33;;;18.07;;
1879;SDS011;49285;49.002;8.390;2024-01-10T14:14:09;29.00;;;20.27;;
1879;SDS011;49285;49.002;8.390;2024-01-10T14:16:35;28.90;;;18.43;;
1879;SDS011;49285;49.002;8.390;2024-01-10T14:19:01;30.13;;;18.87;;
1879;SDS011;49285;49.002;8.390;2024-01-10T14:21:26;25.40;;;19.27;;
1879;SDS011;49285;49.002;8.390;2024-01-10T14:23:52;35.23;;;20.13;;
1879;SDS011;49285;49.002;8.390;2024-01-10T14:26:17;31.50;;;19.40;;
1879;SDS011;49285;49.002;8.390;2024-01-10T14:28:43;27.73;;;17.57;;
1879;SDS011;49285;49.002;8.390;2024-01-10T14:31:09;30.20;;;19.90;;
1879;SDS011;49285;49.002;8.390;2024-01-10T14:33:38;26.60;;;17.53;;
1879;SDS011;49285;49.002;8.390;2024-01-10T14:36:05;26.40;;;18.60;;
1879;SDS011;49285;49.002;8.390;2024-01-10T14:38:31;25.73;;;17.33;;
1879;SDS011;49285;49.002;8.390;2024-01-10T14:40:56;31.07;;;19.97;;
1879;SDS011;49285;49.002;8.390;2024-01-10T14:43:23;24.53;;;18.10;;
1879;SDS011;49285;49.002;8.390;2024-01-10T14:45:49;27.00;;;17.30;;
1879;SDS011;49285;49.002;8.390;2024-01-10T14:48:14;27.63;;;18.30;;
1879;SDS011;49285;49.002;8.390;2024-01-10T14:50:40;30.87;;;18.97;;